Time;durP1;ratioP1;P1;durP2;ratioP2;P2;SDS_P1;SDS_P2;PMS_P1;PMS_P2;Temp;Humidity;BMP_temperature;BMP_pressure;BME280_temperature;BME280_humidity;BME280_pressure;Samples;Min_cycle;Max_cycle;Signal;HPM_P1;HPM_P2
2021/04/17 04:08:37;;;;;;;11.32;6.30;;;2.80;99.90;;;;;;5291375;23;19907;-83
2021/04/17 04:11:04;;;;;;;15.60;7.00;;;;;;;;;;4963193;28;20052;-83
2021/04/17 04:13:31;;;;;;;12.98;7.15;;;;;;;;;;4963233;28;20028;-82
2021/04/17 04:15:58;;;;;;;11.88;6.57;;;;;;;;;;4963184;28;20056;-81
2021/04/17 04:18:24;;;;;;;15.35;7.65;;;;;;;;;;4963279;28;20066;-81
2021/04/17 04:20:51;;;;;;;17.98;7.35;;;;;;;;;;4963274;28;20075;-81
2021/04/17 04:23:18;;;;;;;10.88;7.07;;;;;;;;;;4963184;28;20089;-81
2021/04/17 04:25:46;;;;;;;14.38;6.40;;;2.70;99.90;;;;;;4963099;28;20034;-81
2021/04/17 04:28:13;;;;;;;11.88;6.00;;;;;;;;;;4963013;28;20066;-81
2021/04/17 04:30:39;;;;;;;12.15;6.32;;;;;;;;;;4963015;28;20039;-81
2021/04/17 04:33:07;;;;;;;12.48;5.82;;;;;;;;;;4962929;28;20062;-81
2021/04/17 04:35:33;;;;;;;14.77;6.65;;;;;;;;;;4962883;28;20058;-81
2021/04/17 04:38:00;;;;;;;17.58;6.68;;;;;;;;;;4962788;28;20055;-81
2021/04/17 04:40:27;;;;;;;15.23;7.00;;;;;;;;;;4962742;28;20067;-81
2021/04/17 04:42:55;;;;;;;14.75;6.82;;;2.70;99.90;;;;;;4962617;28;20079;-81
2021/04/17 04:45:22;;;;;;;12.60;6.90;;;;;;;;;;4962647;28;20082;-81
2021/04/17 06:00:48;;;;;;;13.00;5.53;;;2.30;99.90;;;;;;5171481;23;19906;-81
2021/04/17 07:17:57;;;;;;;10.40;5.35;;;6.30;99.90;;;;;;5809757;23;20075;-84
2021/04/17 07:20:23;;;;;;;10.35;4.60;;;7.10;99.90;;;;;;4939909;29;20469;-88
2021/04/17 07:22:50;;;;;;;12.30;5.22;;;9.20;99.90;;;;;;4939776;29;20051;-88
2021/04/17 07:25:18;;;;;;;10.60;5.00;;;11.90;99.90;;;;;;4940312;29;20073;-86
2021/04/17 07:27:45;;;;;;;9.60;4.15;;;14.50;99.90;;;;;;4940069;29;20421;-85
2021/04/17 07:30:31;;;;;;;9.23;4.53;;;16.50;99.70;;;;;;4940252;29;20059;-84
2021/04/17 07:33:06;;;;;;;10.43;4.53;;;18.20;76.90;;;;;;4939831;29;20059;-83
2021/04/17 07:35:34;;;;;;;6.50;4.13;;;19.60;74.80;;;;;;4939941;29;20051;-83
2021/04/17 07:38:14;;;;;;;7.40;4.75;;;20.40;65.10;;;;;;4939975;29;20051;-83
2021/04/17 07:40:41;;;;;;;9.35;4.95;;;20.50;62.70;;;;;;4939851;29;20106;-83
2021/04/17 07:43:07;;;;;;;7.72;4.90;;;20.60;60.70;;;;;;4939661;29;20058;-83
2021/04/17 07:45:35;;;;;;;7.68;5.47;;;20.20;58.80;;;;;;4939992;29;20056;-83
2021/04/17 07:48:17;;;;;;;7.85;5.47;;;19.20;54.90;;;;;;4939605;29;20059;-82
2021/04/17 07:50:45;;;;;;;9.70;5.68;;;17.60;56.90;;;;;;4939660;29;20052;-82
2021/04/17 07:53:24;;;;;;;8.80;6.07;;;15.60;59.10;;;;;;4939569;29;20483;-83
2021/04/17 07:55:51;;;;;;;6.88;5.63;;;14.00;63.80;;;;;;4939406;29;20146;-83
2021/04/17 07:58:18;;;;;;;8.85;6.22;;;12.70;67.50;;;;;;4939831;29;20077;-84
2021/04/17 08:00:44;;;;;;;9.57;6.30;;;11.60;70.70;;;;;;4939897;29;20051;-84
2021/04/17 08:03:11;;;;;;;13.45;6.07;;;10.90;79.40;;;;;;4939372;29;20255;-85
2021/04/17 08:05:38;;;;;;;7.90;6.10;;;10.30;90.20;;;;;;4939690;29;20060;-85
2021/04/17 08:08:06;;;;;;;13.90;6.55;;;9.80;95.30;;;;;;4939536;29;20058;-85
2021/04/17 08:10:32;;;;;;;15.95;9.88;;;9.40;97.60;;;;;;4939249;29;20061;-86
2021/04/17 08:13:00;;;;;;;11.27;7.82;;;9.20;99.90;;;;;;4939255;29;20460;-85
2021/04/17 08:15:27;;;;;;;40.20;17.30;;;9.10;99.90;;;;;;4939534;29;20063;-86
2021/04/17 08:17:54;;;;;;;17.33;10.38;;;9.00;99.90;;;;;;4939281;29;20070;-85
2021/04/17 08:20:21;;;;;;;12.98;7.32;;;8.90;99.90;;;;;;4939283;29;20090;-86
2021/04/17 08:22:49;;;;;;;94.20;44.35;;;8.90;99.90;;;;;;4939267;29;20077;-86
2021/04/17 08:25:19;;;;;;;27.42;14.57;;;8.80;99.90;;;;;;4939018;29;20138;-86
2021/04/17 08:27:45;;;;;;;435.15;208.52;;;8.70;99.90;;;;;;4939336;29;20052;-86
2021/04/17 08:30:19;;;;;;;209.73;82.30;;;8.70;99.90;;;;;;4938872;29;20055;-86
2021/04/17 08:32:46;;;;;;;78.50;47.05;;;8.60;99.90;;;;;;4939039;29;20098;-84
2021/04/17 08:35:13;;;;;;;217.30;111.38;;;8.60;99.90;;;;;;4938885;29;20111;-86
2021/04/17 08:38:03;;;;;;;306.17;150.50;;;8.50;99.90;;;;;;4938980;29;20063;-86
2021/04/17 08:40:58;;;;;;;64.07;32.28;;;8.50;99.90;;;;;;4939046;29;20051;-88
2021/04/17 08:43:34;;;;;;;23.05;13.65;;;8.50;99.90;;;;;;4862028;29;20053;-88
2021/04/17 08:46:07;;;;;;;17.73;10.73;;;8.50;99.90;;;;;;4862177;29;20144;-88
2021/04/17 08:48:45;;;;;;;20.95;11.90;;;8.40;99.90;;;;;;4861949;29;20057;-88
2021/04/17 08:51:30;;;;;;;20.42;11.45;;;8.40;99.90;;;;;;4861944;29;20053;-88
2021/04/17 08:54:23;;;;;;;17.42;10.68;;;8.40;99.90;;;;;;4861938;29;20053;-88
2021/04/17 08:56:53;;;;;;;23.55;13.00;;;8.40;99.90;;;;;;4857655;29;20144;-88
2021/04/17 08:59:21;;;;;;;18.58;11.05;;;8.40;99.90;;;;;;4861784;29;20061;-88
2021/04/17 09:01:48;;;;;;;20.98;11.70;;;8.40;99.90;;;;;;4861589;29;20113;-88
2021/04/17 09:04:14;;;;;;;20.15;11.48;;;8.40;99.90;;;;;;4861766;29;20053;-88
2021/04/17 09:06:43;;;;;;;18.00;10.40;;;8.40;99.90;;;;;;4861595;29;20061;-88
2021/04/17 09:09:29;;;;;;;20.30;11.48;;;8.40;99.90;;;;;;4861594;29;20071;-88
2021/04/17 09:11:57;;;;;;;22.15;12.70;;;8.40;99.90;;;;;;4861630;29;20053;-88
2021/04/17 09:14:52;;;;;;;19.63;11.65;;;8.50;99.90;;;;;;4861598;29;20130;-88
2021/04/17 09:17:40;;;;;;;19.20;11.40;;;8.60;99.90;;;;;;4861313;29;20068;-88
2021/04/17 09:20:07;;;;;;;23.75;11.85;;;8.60;99.90;;;;;;4933464;29;20056;-88
2021/04/17 09:22:47;;;;;;;22.42;12.07;;;8.70;99.90;;;;;;4938003;29;20058;-88
2021/04/17 09:25:15;;;;;;;19.30;12.68;;;8.80;99.90;;;;;;4937972;29;20066;-88
2021/04/17 09:27:43;;;;;;;23.50;12.55;;;8.80;99.90;;;;;;4938138;29;20056;-88
2021/04/17 09:30:11;;;;;;;21.13;11.88;;;8.70;99.90;;;;;;4937854;29;20059;-88
2021/04/17 09:32:38;;;;;;;24.70;12.82;;;8.80;99.90;;;;;;4937799;29;20048;-88
2021/04/17 09:35:13;;;;;;;20.92;11.27;;;8.80;99.90;;;;;;4937913;29;20109;-88
2021/04/17 09:37:39;;;;;;;;;;;8.90;99.90;;;;;;4937844;29;20059;-88
2021/04/17 09:40:06;;;;;;;23.35;11.98;;;9.00;99.90;;;;;;4937736;29;20035;-87
2021/04/17 09:42:34;;;;;;;29.00;12.73;;;9.10;99.90;;;;;;4937573;29;20062;-88
2021/04/17 09:45:01;;;;;;;18.65;11.75;;;9.10;99.90;;;;;;4937678;29;20381;-88
2021/04/17 09:47:28;;;;;;;26.75;13.00;;;9.10;99.90;;;;;;4937720;29;20139;-88
2021/04/17 09:49:55;;;;;;;20.60;12.15;;;9.20;99.90;;;;;;4937474;29;20380;-87
2021/04/17 09:52:22;;;;;;;22.40;13.90;;;9.30;99.90;;;;;;4937750;29;20143;-86
2021/04/17 09:54:59;;;;;;;21.02;13.13;;;9.30;99.90;;;;;;4937510;29;20096;-86
2021/04/17 09:57:26;;;;;;;23.00;12.95;;;9.30;99.90;;;;;;4937502;29;20055;-86
2021/04/17 09:59:52;;;;;;;21.75;13.68;;;9.30;99.90;;;;;;4937592;29;20379;-86
2021/04/17 10:02:20;;;;;;;20.20;13.10;;;9.30;99.90;;;;;;4937572;29;20047;-86
2021/04/17 10:04:48;;;;;;;21.95;13.85;;;9.30;99.90;;;;;;4937375;29;20385;-86
2021/04/17 10:07:14;;;;;;;22.73;12.38;;;9.30;99.90;;;;;;4937412;29;20051;-86
2021/04/17 10:09:42;;;;;;;20.58;13.38;;;9.40;99.90;;;;;;4937258;29;20056;-86
2021/04/17 10:12:09;;;;;;;22.70;12.80;;;9.40;99.90;;;;;;4937594;29;20051;-86
2021/04/17 10:14:36;;;;;;;20.88;12.88;;;9.40;99.90;;;;;;4937555;29;20130;-86
2021/04/17 10:17:02;;;;;;;21.52;13.77;;;9.50;99.90;;;;;;4937364;29;20056;-86
2021/04/17 10:19:30;;;;;;;20.60;13.77;;;9.60;99.90;;;;;;4937335;29;20063;-86
2021/04/17 10:21:57;;;;;;;25.95;14.35;;;9.60;99.90;;;;;;4937061;29;20051;-86
2021/04/17 10:24:25;;;;;;;25.85;14.75;;;9.60;99.90;;;;;;4937175;29;20060;-86
2021/04/17 10:26:53;;;;;;;30.88;16.95;;;9.60;99.90;;;;;;4937333;29;20067;-86
2021/04/17 10:29:20;;;;;;;27.25;15.60;;;9.50;99.90;;;;;;4936942;29;20470;-86
2021/04/17 10:31:47;;;;;;;30.95;16.65;;;9.50;99.90;;;;;;4937093;29;20436;-86
2021/04/17 10:34:22;;;;;;;26.30;13.95;;;9.50;99.90;;;;;;4937075;29;20067;-86
2021/04/17 10:37:00;;;;;;;27.13;15.07;;;9.50;99.90;;;;;;4937157;29;20058;-86
2021/04/17 10:39:26;;;;;;;32.50;15.70;;;9.70;99.90;;;;;;4937059;29;20052;-86
2021/04/17 10:42:05;;;;;;;25.88;17.10;;;9.80;99.90;;;;;;4936983;29;20465;-86
2021/04/17 10:44:32;;;;;;;24.75;14.10;;;9.80;99.90;;;;;;4937044;29;20052;-86
2021/04/17 10:46:59;;;;;;;26.83;14.93;;;9.90;99.90;;;;;;4937198;29;20051;-86
2021/04/17 10:49:33;;;;;;;24.42;14.75;;;9.90;99.90;;;;;;4938261;29;20083;-84
2021/04/17 10:52:02;;;;;;;25.45;14.98;;;10.00;99.90;;;;;;4941046;29;20055;-86
2021/04/17 10:54:29;;;;;;;27.27;15.10;;;10.10;99.90;;;;;;4940945;29;20106;-87
2021/04/17 10:57:00;;;;;;;25.90;15.18;;;10.10;99.90;;;;;;4940658;29;20055;-86
2021/04/17 10:59:26;;;;;;;23.80;14.35;;;10.20;99.90;;;;;;4940731;29;20051;-87
2021/04/17 11:01:53;;;;;;;19.88;12.80;;;10.20;99.90;;;;;;4940480;29;20048;-86
2021/04/17 11:04:20;;;;;;;18.95;11.85;;;10.30;99.90;;;;;;4940779;29;20059;-85
2021/04/17 11:06:49;;;;;;;26.65;16.33;;;10.30;99.90;;;;;;4940478;29;20048;-86
2021/04/17 11:09:17;;;;;;;21.90;12.25;;;10.40;99.30;;;;;;4940387;29;20491;-86
2021/04/17 11:11:54;;;;;;;22.20;12.30;;;10.40;99.90;;;;;;4940658;29;20079;-86
2021/04/17 11:14:21;;;;;;;24.52;12.52;;;10.50;97.80;;;;;;4940295;29;20051;-85
2021/04/17 11:16:50;;;;;;;25.20;14.50;;;10.50;99.10;;;;;;4940279;29;20059;-86
2021/04/17 11:19:27;;;;;;;23.25;12.80;;;10.50;99.90;;;;;;4940252;28;20126;-86
2021/04/17 11:22:06;;;;;;;22.05;12.77;;;10.60;99.20;;;;;;4940416;29;20058;-86
2021/04/17 11:24:34;;;;;;;23.15;12.90;;;10.60;94.10;;;;;;4940095;29;20102;-86
2021/04/17 11:27:01;;;;;;;22.13;13.43;;;10.70;97.50;;;;;;4942494;29;20383;-86
2021/04/17 11:29:27;;;;;;;22.27;13.40;;;10.60;97.80;;;;;;4940360;29;20052;-86
2021/04/17 11:31:54;;;;;;;19.83;12.82;;;10.60;98.40;;;;;;4940060;29;20107;-86
2021/04/17 11:34:20;;;;;;;20.02;12.45;;;10.70;97.20;;;;;;4940217;29;20055;-85
2021/04/17 11:36:47;;;;;;;18.15;12.77;;;10.70;97.90;;;;;;4939996;29;20055;-86
2021/04/17 11:39:15;;;;;;;20.65;13.43;;;10.70;97.80;;;;;;4939917;29;20052;-86
2021/04/17 11:41:42;;;;;;;21.25;12.90;;;10.60;99.00;;;;;;4940014;29;20056;-86
2021/04/17 11:44:09;;;;;;;21.33;13.25;;;10.50;98.10;;;;;;4939791;29;20061;-86
2021/04/17 11:46:36;;;;;;;20.27;12.93;;;10.50;99.90;;;;;;4940188;29;20113;-86
2021/04/17 11:49:03;;;;;;;23.08;12.95;;;10.40;99.70;;;;;;4940262;29;20060;-85
2021/04/17 11:51:29;;;;;;;21.20;12.48;;;10.50;96.60;;;;;;4939695;29;20503;-86
2021/04/17 11:53:56;;;;;;;20.92;14.10;;;10.60;95.60;;;;;;4939696;29;20044;-86
2021/04/17 11:56:23;;;;;;;20.17;13.13;;;10.60;97.60;;;;;;4939605;29;20071;-85
2021/04/17 11:58:50;;;;;;;18.92;11.40;;;10.90;99.70;;;;;;4940058;29;20062;-85
2021/04/17 12:01:18;;;;;;;21.15;13.07;;;11.00;98.60;;;;;;4939562;29;20048;-85
2021/04/17 12:03:45;;;;;;;26.00;14.27;;;11.00;97.70;;;;;;4939522;29;20488;-86
2021/04/17 12:06:12;;;;;;;19.63;11.95;;;11.00;95.70;;;;;;4939803;29;20047;-85
2021/04/17 12:08:39;;;;;;;21.00;13.43;;;11.00;97.10;;;;;;4939618;29;20047;-85
2021/04/17 12:11:06;;;;;;;18.92;10.73;;;11.00;97.10;;;;;;4939467;29;20528;-85
2021/04/17 12:13:33;;;;;;;17.92;11.75;;;11.20;97.00;;;;;;4939580;29;20051;-85
2021/04/17 12:16:00;;;;;;;17.70;11.63;;;11.40;97.70;;;;;;4939388;29;20052;-85
2021/04/17 12:18:27;;;;;;;19.50;12.43;;;11.60;92.20;;;;;;4939105;29;20392;-83
2021/04/17 12:20:54;;;;;;;24.20;13.02;;;11.80;88.90;;;;;;4939358;29;20051;-83
2021/04/17 12:23:20;;;;;;;19.98;11.25;;;11.80;90.40;;;;;;4939102;29;20362;-86
2021/04/17 12:25:48;;;;;;;34.30;11.48;;;11.80;88.30;;;;;;4939017;29;20048;-86
2021/04/17 12:28:14;;;;;;;17.15;9.90;;;11.80;88.20;;;;;;4939289;29;20359;-86
2021/04/17 12:30:41;;;;;;;17.65;11.40;;;12.00;78.80;;;;;;4939206;29;20051;-85
2021/04/17 12:33:09;;;;;;;20.10;11.48;;;12.00;76.60;;;;;;4938946;29;20527;-86
2021/04/17 12:35:36;;;;;;;22.52;11.85;;;12.00;78.80;;;;;;4939182;29;20059;-85
2021/04/17 12:38:03;;;;;;;26.67;13.02;;;12.10;84.10;;;;;;4939149;29;20058;-86
2021/04/17 12:40:29;;;;;;;21.45;12.77;;;12.10;85.40;;;;;;4939012;29;20061;-86
2021/04/17 12:42:56;;;;;;;18.35;10.55;;;12.20;82.80;;;;;;4938752;29;20043;-84
2021/04/17 12:45:23;;;;;;;16.30;11.23;;;12.20;83.60;;;;;;4938668;29;20465;-84
2021/04/17 12:47:50;;;;;;;23.05;12.93;;;12.30;83.10;;;;;;4939170;29;20078;-85
2021/04/17 12:50:17;;;;;;;18.13;11.90;;;12.40;84.80;;;;;;4938773;29;20052;-84
2021/04/17 12:52:44;;;;;;;16.98;11.20;;;12.40;81.20;;;;;;4938627;29;20055;-85
2021/04/17 12:55:11;;;;;;;17.00;12.18;;;12.50;78.80;;;;;;4938491;29;20051;-84
2021/04/17 12:57:38;;;;;;;17.20;11.93;;;12.50;78.40;;;;;;4938530;29;20052;-84
2021/04/17 13:00:05;;;;;;;15.77;11.10;;;12.50;80.30;;;;;;4938279;29;20054;-84
2021/04/17 13:02:32;;;;;;;18.60;11.82;;;12.60;80.30;;;;;;4938175;29;20065;-84
2021/04/17 13:04:59;;;;;;;17.38;11.75;;;12.70;78.90;;;;;;4938667;29;20388;-84
2021/04/17 13:07:26;;;;;;;17.02;11.50;;;12.80;80.20;;;;;;4938253;29;20061;-84
2021/04/17 13:09:53;;;;;;;21.42;11.00;;;12.90;77.70;;;;;;4938217;29;20059;-84
2021/04/17 13:12:19;;;;;;;18.80;11.10;;;13.10;74.90;;;;;;4937734;29;20051;-84
2021/04/17 13:14:46;;;;;;;18.05;11.30;;;13.20;77.10;;;;;;4938155;29;20106;-84
2021/04/17 13:17:12;;;;;;;14.13;10.02;;;13.20;73.80;;;;;;4938186;29;20052;-84
2021/04/17 13:19:39;;;;;;;14.88;11.27;;;13.30;72.30;;;;;;4937968;29;20059;-84
2021/04/17 13:22:06;;;;;;;17.15;12.60;;;13.30;70.00;;;;;;4938143;29;20055;-84
2021/04/17 13:24:34;;;;;;;16.88;9.38;;;13.30;71.90;;;;;;4938269;29;20087;-84
2021/04/17 13:27:00;;;;;;;15.55;10.60;;;13.30;70.60;;;;;;4938160;29;20055;-86
2021/04/17 13:29:27;;;;;;;15.25;10.38;;;13.50;70.10;;;;;;4937907;29;20404;-85
2021/04/17 13:31:54;;;;;;;16.63;10.50;;;13.60;70.00;;;;;;4937847;29;20051;-84
2021/04/17 13:34:20;;;;;;;24.10;11.10;;;13.90;72.80;;;;;;4937324;29;20048;-83
2021/04/17 13:36:47;;;;;;;15.68;10.82;;;14.00;70.30;;;;;;4937306;29;20408;-84
2021/04/17 13:39:13;;;;;;;18.88;11.02;;;14.10;69.40;;;;;;4937231;29;20055;-84
2021/04/17 13:41:41;;;;;;;13.75;10.52;;;14.10;67.10;;;;;;4937792;29;20055;-84
2021/04/17 13:44:10;;;;;;;16.33;11.20;;;14.30;66.90;;;;;;4937508;29;20044;-84
2021/04/17 13:46:37;;;;;;;16.63;11.35;;;14.30;64.20;;;;;;4936993;29;20091;-84
2021/04/17 13:49:04;;;;;;;19.42;12.07;;;14.30;64.70;;;;;;4937623;29;20469;-84
2021/04/17 13:51:31;;;;;;;16.17;10.95;;;14.20;65.60;;;;;;4937885;29;20051;-83
2021/04/17 13:53:57;;;;;;;14.10;9.77;;;14.20;64.90;;;;;;4937822;29;20402;-84
2021/04/17 13:56:24;;;;;;;15.00;10.30;;;14.20;65.20;;;;;;4937806;29;20136;-83
2021/04/17 13:58:51;;;;;;;13.13;9.68;;;14.20;61.70;;;;;;4937559;29;20103;-84
2021/04/17 14:01:18;;;;;;;16.95;10.02;;;14.10;63.00;;;;;;4937952;29;20052;-84
2021/04/17 14:03:44;;;;;;;12.00;9.63;;;14.10;63.90;;;;;;4937375;29;20054;-84
2021/04/17 14:06:11;;;;;;;15.25;9.80;;;14.10;65.10;;;;;;4937613;29;20147;-84
2021/04/17 14:08:38;;;;;;;12.68;10.27;;;14.20;64.80;;;;;;4937426;29;20055;-84
2021/04/17 14:11:04;;;;;;;13.98;9.48;;;14.10;62.60;;;;;;4937538;29;20062;-84
2021/04/17 14:13:31;;;;;;;16.73;11.57;;;13.90;62.80;;;;;;4937325;29;20090;-84
2021/04/17 14:15:59;;;;;;;14.90;10.30;;;13.80;65.00;;;;;;4937518;29;20063;-84
2021/04/17 14:18:25;;;;;;;15.60;9.98;;;13.50;64.80;;;;;;4937341;29;20055;-85
2021/04/17 14:20:52;;;;;;;12.10;9.30;;;13.40;65.60;;;;;;4937498;29;20051;-85
2021/04/17 14:23:18;;;;;;;16.02;9.98;;;13.30;63.90;;;;;;4938520;29;20060;-85
2021/04/17 14:25:45;;;;;;;16.77;9.88;;;13.30;64.10;;;;;;4941229;29;20436;-84
2021/04/17 14:28:12;;;;;;;17.77;10.38;;;13.40;65.90;;;;;;4941027;29;20051;-85
2021/04/17 14:30:38;;;;;;;13.82;10.07;;;13.30;67.40;;;;;;4941588;29;20129;-84
2021/04/17 14:33:06;;;;;;;19.63;11.38;;;13.30;66.70;;;;;;4941105;29;20043;-85
2021/04/17 14:35:33;;;;;;;18.48;10.98;;;13.40;67.00;;;;;;4941037;29;20060;-84
2021/04/17 14:38:00;;;;;;;16.67;10.27;;;13.40;69.30;;;;;;4941143;29;20066;-84
2021/04/17 14:40:26;;;;;;;17.42;10.88;;;13.30;66.20;;;;;;4941211;29;20056;-84
2021/04/17 14:42:53;;;;;;;17.85;10.93;;;13.40;67.40;;;;;;4941203;29;20069;-85
2021/04/17 14:45:19;;;;;;;16.67;9.27;;;13.40;67.60;;;;;;4940916;29;20366;-85
2021/04/17 14:47:46;;;;;;;17.98;10.60;;;13.50;67.20;;;;;;4941141;29;20052;-85
2021/04/17 14:50:16;;;;;;;16.58;9.20;;;13.60;64.60;;;;;;4941022;29;20121;-85
2021/04/17 14:52:42;;;;;;;15.05;9.60;;;13.60;64.60;;;;;;4941201;29;20476;-86
2021/04/17 14:55:10;;;;;;;16.08;10.27;;;13.60;65.00;;;;;;4940599;29;20056;-86
2021/04/17 14:57:36;;;;;;;16.70;9.90;;;13.60;65.10;;;;;;4940688;29;20153;-85
2021/04/17 15:00:04;;;;;;;15.10;9.88;;;13.70;65.50;;;;;;4940612;29;20140;-85
2021/04/17 15:02:31;;;;;;;19.80;10.80;;;13.70;64.80;;;;;;4940479;29;20052;-86
2021/04/17 15:04:57;;;;;;;13.80;8.98;;;13.70;66.30;;;;;;4940512;29;20138;-85
2021/04/17 15:07:25;;;;;;;15.88;9.27;;;13.60;65.70;;;;;;4940553;29;20465;-85
2021/04/17 15:09:51;;;;;;;14.30;10.23;;;13.70;66.10;;;;;;4940568;29;20047;-85
2021/04/17 15:12:18;;;;;;;14.73;9.57;;;13.60;65.90;;;;;;4940586;29;20062;-85
2021/04/17 15:14:45;;;;;;;15.68;9.57;;;13.60;63.80;;;;;;4940548;29;20051;-85
2021/04/17 15:17:11;;;;;;;14.70;9.30;;;13.50;64.90;;;;;;4939647;29;20377;-85
2021/04/17 15:19:39;;;;;;;13.30;9.20;;;13.30;66.40;;;;;;4940173;29;20067;-85
2021/04/17 15:22:05;;;;;;;15.52;9.07;;;13.40;65.70;;;;;;4939798;29;20142;-85
2021/04/17 15:24:33;;;;;;;13.77;8.85;;;13.30;66.00;;;;;;4940290;29;20480;-85
2021/04/17 15:27:00;;;;;;;11.77;8.40;;;13.20;65.10;;;;;;4940207;29;20142;-84
2021/04/17 15:29:26;;;;;;;14.07;8.95;;;13.20;65.20;;;;;;4940220;29;20051;-85
2021/04/17 15:31:53;;;;;;;15.80;9.25;;;13.10;65.00;;;;;;4939603;29;20090;-85
2021/04/17 15:34:19;;;;;;;17.63;10.45;;;13.10;65.40;;;;;;4939652;29;20098;-85
2021/04/17 15:36:46;;;;;;;15.15;9.38;;;13.20;66.60;;;;;;4939750;29;20051;-85
2021/04/17 15:39:13;;;;;;;14.95;8.88;;;13.20;66.00;;;;;;4939928;29;20493;-85
2021/04/17 15:41:40;;;;;;;13.43;7.15;;;13.30;64.10;;;;;;4939814;29;20055;-85
2021/04/17 15:44:09;;;;;;;14.60;8.73;;;13.30;62.60;;;;;;4940073;29;20070;-86
2021/04/17 15:46:36;;;;;;;13.57;8.35;;;13.30;62.50;;;;;;4939888;29;20098;-86
2021/04/17 15:49:02;;;;;;;15.30;8.02;;;13.30;63.90;;;;;;4939964;29;20354;-85
2021/04/17 15:51:29;;;;;;;14.50;9.38;;;13.30;64.70;;;;;;4939680;29;20052;-85
2021/04/17 15:53:55;;;;;;;12.63;8.73;;;13.30;65.30;;;;;;4939688;29;20432;-85
2021/04/17 15:56:22;;;;;;;12.75;9.45;;;13.30;66.20;;;;;;4939845;29;20055;-86
2021/04/17 16:15:19;;;;;;;19.13;9.68;;;12.60;67.90;;;;;;4939454;29;20057;-86
2021/04/17 16:17:59;;;;;;;12.63;7.70;;;12.60;67.30;;;;;;4939359;29;20138;-86
2021/04/17 16:20:26;;;;;;;14.65;8.38;;;12.60;66.80;;;;;;4939551;29;20059;-86
2021/04/17 16:22:52;;;;;;;13.10;8.82;;;12.50;67.70;;;;;;4920016;29;20111;-86
2021/04/17 16:25:19;;;;;;;12.80;9.02;;;12.40;69.10;;;;;;4920659;29;20119;-86
2021/04/17 16:27:46;;;;;;;11.45;9.05;;;12.40;69.80;;;;;;4920074;29;20052;-86
2021/04/17 16:30:13;;;;;;;15.73;7.65;;;12.30;71.10;;;;;;4920010;29;20066;-86
2021/04/17 16:32:41;;;;;;;14.77;8.60;;;12.20;69.80;;;;;;4920100;29;20062;-86
2021/04/17 16:35:09;;;;;;;13.77;8.73;;;12.20;71.10;;;;;;4919346;29;20056;-86
2021/04/17 16:37:36;;;;;;;20.15;8.85;;;12.20;73.30;;;;;;4919845;29;20111;-86
2021/04/17 16:40:04;;;;;;;11.75;8.25;;;12.20;72.40;;;;;;4919993;29;20158;-86
2021/04/17 16:42:30;;;;;;;15.80;9.63;;;12.30;72.30;;;;;;4919553;29;20467;-86
2021/04/17 16:44:58;;;;;;;12.73;9.13;;;12.40;70.70;;;;;;4919789;29;20066;-86
2021/04/17 16:47:25;;;;;;;11.95;8.38;;;12.40;68.90;;;;;;4919710;29;20123;-86
2021/04/17 16:49:52;;;;;;;15.85;10.00;;;12.50;68.90;;;;;;4919789;29;20058;-87
2021/04/17 16:52:19;;;;;;;13.65;9.20;;;12.60;69.50;;;;;;4919242;29;20052;-86
2021/04/17 16:54:46;;;;;;;15.48;10.18;;;12.60;70.20;;;;;;4919575;29;20385;-86
2021/04/17 16:57:12;;;;;;;12.20;8.38;;;12.60;70.50;;;;;;4919849;29;20049;-87
2021/04/17 16:59:39;;;;;;;12.00;9.07;;;12.70;71.40;;;;;;4919439;29;20052;-86
2021/04/17 17:02:05;;;;;;;14.95;9.38;;;12.60;71.10;;;;;;4919732;29;20056;-86
2021/04/17 17:04:32;;;;;;;15.32;9.65;;;12.60;71.30;;;;;;4919465;29;20048;-86
2021/04/17 17:06:59;;;;;;;14.20;9.50;;;12.50;73.20;;;;;;4919373;29;20056;-86
2021/04/17 17:09:26;;;;;;;15.57;9.20;;;12.50;74.50;;;;;;4919548;29;20359;-87
2021/04/17 17:11:53;;;;;;;14.88;8.75;;;12.40;75.00;;;;;;4919434;29;20048;-86
2021/04/17 17:14:19;;;;;;;16.42;9.90;;;12.40;73.30;;;;;;4919476;29;20051;-86
2021/04/17 17:16:46;;;;;;;12.82;8.55;;;12.50;73.20;;;;;;4919156;29;20469;-86
2021/04/17 17:19:12;;;;;;;13.32;7.93;;;12.50;73.60;;;;;;4919021;29;20060;-86
2021/04/17 17:21:39;;;;;;;11.75;8.00;;;12.60;72.40;;;;;;4918966;29;20064;-87
2021/04/17 17:24:08;;;;;;;14.25;8.65;;;12.60;71.50;;;;;;4919165;29;20052;-86
2021/04/17 17:26:34;;;;;;;12.85;8.15;;;12.70;70.80;;;;;;4918916;29;20400;-85
2021/04/17 17:29:01;;;;;;;16.15;9.13;;;12.70;71.30;;;;;;4918971;29;20056;-86
2021/04/17 17:31:28;;;;;;;16.13;9.18;;;12.60;71.70;;;;;;4919440;29;20091;-85
2021/04/17 17:33:54;;;;;;;14.98;8.85;;;12.60;72.50;;;;;;4918972;29;20051;-85
2021/04/17 17:36:21;;;;;;;16.80;9.60;;;12.50;72.30;;;;;;4919256;29;20052;-86
2021/04/17 17:38:47;;;;;;;12.77;8.93;;;12.50;72.20;;;;;;4918919;29;20056;-85
2021/04/17 17:41:15;;;;;;;14.52;9.63;;;12.40;73.00;;;;;;4918883;29;20058;-86
2021/04/17 17:43:41;;;;;;;16.20;10.07;;;12.40;72.70;;;;;;4918697;29;20048;-85
2021/04/17 17:46:08;;;;;;;14.93;9.68;;;12.40;75.50;;;;;;4918482;29;20066;-85
2021/04/17 17:48:35;;;;;;;16.05;9.52;;;12.30;74.80;;;;;;4918482;29;20071;-85
2021/04/17 17:51:01;;;;;;;15.85;10.88;;;12.20;77.20;;;;;;4918347;29;20052;-85
2021/04/17 17:53:28;;;;;;;17.20;11.00;;;12.20;77.70;;;;;;4918591;29;20048;-85
2021/04/17 17:55:54;;;;;;;13.40;10.55;;;12.20;77.30;;;;;;4918904;29;20064;-85
2021/04/17 17:58:22;;;;;;;27.40;10.82;;;12.10;78.50;;;;;;4918270;29;20052;-85
2021/04/17 18:00:48;;;;;;;19.80;10.85;;;12.10;82.60;;;;;;4918774;29;20056;-85
2021/04/17 18:03:15;;;;;;;19.90;12.15;;;12.10;84.40;;;;;;4918481;29;20074;-85
2021/04/17 18:05:42;;;;;;;16.77;11.20;;;12.00;82.00;;;;;;4918750;29;20091;-85
2021/04/17 18:08:08;;;;;;;22.38;10.80;;;12.00;85.60;;;;;;4918418;29;20066;-86
2021/04/17 18:10:35;;;;;;;18.40;11.80;;;12.00;84.10;;;;;;4921529;29;20052;-87
2021/04/17 18:13:03;;;;;;;13.25;10.32;;;14.40;86.80;;;;;;4918930;29;20044;-85
2021/04/17 18:15:31;;;;;;;15.63;11.48;;;12.00;85.80;;;;;;4918581;29;20052;-85
2021/04/17 18:17:57;;;;;;;32.92;19.70;;;12.00;86.20;;;;;;4918391;29;20060;-84
2021/04/17 18:20:24;;;;;;;14.00;10.48;;;12.00;87.50;;;;;;4918298;29;20062;-88
2021/04/17 18:22:50;;;;;;;16.42;10.50;;;12.00;85.40;;;;;;4918262;29;20056;-87
2021/04/17 18:25:17;;;;;;;17.00;10.80;;;12.00;86.10;;;;;;4918435;29;20048;-86
2021/04/17 18:27:44;;;;;;;16.70;11.02;;;12.00;87.90;;;;;;4918592;29;20066;-86
2021/04/17 18:30:14;;;;;;;15.57;10.45;;;12.00;87.10;;;;;;4918603;29;20381;-86
2021/04/17 18:32:42;;;;;;;21.63;11.25;;;11.90;87.50;;;;;;4918715;29;20056;-85
2021/04/17 18:35:09;;;;;;;22.83;11.40;;;11.90;88.60;;;;;;4918484;29;20048;-86
2021/04/17 18:37:36;;;;;;;18.83;12.50;;;11.90;90.10;;;;;;4918279;29;20438;-86
2021/04/17 18:40:03;;;;;;;15.80;10.38;;;11.90;90.10;;;;;;4918363;29;20048;-86
2021/04/17 18:42:29;;;;;;;20.70;11.85;;;11.80;90.30;;;;;;4918436;29;20058;-85
2021/04/17 18:44:56;;;;;;;17.73;11.02;;;11.80;90.50;;;;;;4918032;29;20055;-85
2021/04/17 18:47:23;;;;;;;16.75;10.50;;;11.70;91.20;;;;;;4918200;29;20052;-85
2021/04/17 18:49:50;;;;;;;24.88;13.38;;;11.70;90.90;;;;;;4918159;29;20110;-87
2021/04/17 18:52:17;;;;;;;17.55;11.05;;;11.60;93.40;;;;;;4918460;29;20052;-88
2021/04/17 18:54:43;;;;;;;19.50;10.02;;;11.60;95.10;;;;;;4918081;29;20060;-87
2021/04/17 18:57:10;;;;;;;16.60;10.05;;;11.50;96.50;;;;;;4918227;29;20060;-86
2021/04/17 18:59:37;;;;;;;19.33;10.57;;;11.50;97.60;;;;;;4918648;29;20048;-86
2021/04/17 19:02:05;;;;;;;17.25;9.63;;;11.40;98.30;;;;;;4918221;29;20056;-88
2021/04/17 19:04:31;;;;;;;26.05;10.45;;;11.30;99.00;;;;;;4917887;29;20114;-85
2021/04/17 19:06:59;;;;;;;21.73;10.02;;;11.30;99.90;;;;;;4918145;29;20048;-87
2021/04/17 19:09:26;;;;;;;15.40;9.27;;;11.20;99.90;;;;;;4918009;29;20505;-87
2021/04/17 19:11:52;;;;;;;12.85;9.60;;;11.20;99.90;;;;;;4921286;29;20056;-86
2021/04/17 19:14:19;;;;;;;18.00;10.15;;;11.10;99.90;;;;;;4921763;29;20123;-86
2021/04/17 19:16:46;;;;;;;16.77;9.82;;;11.10;99.90;;;;;;4921365;29;20613;-86
2021/04/17 19:19:13;;;;;;;16.83;10.13;;;11.00;99.90;;;;;;4921337;29;20056;-86
2021/04/17 19:21:39;;;;;;;21.70;9.95;;;11.00;99.90;;;;;;4921297;29;20472;-87
2021/04/17 19:24:09;;;;;;;16.80;9.95;;;10.90;99.90;;;;;;4921398;29;20052;-87
2021/04/17 19:26:36;;;;;;;14.75;9.75;;;10.90;99.90;;;;;;4921244;29;20054;-86
2021/04/17 19:29:02;;;;;;;13.63;9.98;;;10.80;99.90;;;;;;4921611;29;20056;-86
2021/04/17 19:31:29;;;;;;;17.25;11.00;;;10.80;99.90;;;;;;4921063;29;20458;-87
2021/04/17 19:33:55;;;;;;;15.77;9.48;;;10.70;99.90;;;;;;4921341;29;20055;-86